Time;durP1;ratioP1;P1;durP2;ratioP2;P2;SDS_P1;SDS_P2;PMS_P1;PMS_P2;Temp;Humidity;BMP_temperature;BMP_pressure;BME280_temperature;BME280_humidity;BME280_pressure;Samples;Min_cycle;Max_cycle;Signal;HPM_P1;HPM_P2
2023/02/18 07:49:52;;;;;;;4.67;4.23;;;9.50;99.90;;;;;;5135622;27;20268;-81
2023/02/18 07:54:47;;;;;;;3.53;2.47;;;9.60;99.90;;;;;;5136910;27;20291;-81
2023/02/18 08:08:00;;;;;;;2.60;1.90;;;9.70;99.90;;;;;;5134410;27;20267;-80
2023/02/18 08:13:03;;;;;;;1.90;1.67;;;9.80;99.90;;;;;;5135773;27;20275;-80
2023/02/18 08:17:19;;;;;;;2.63;1.63;;;9.80;99.90;;;;;;5135052;27;20271;-80
2023/02/18 08:19:45;;;;;;;3.83;2.87;;;10.00;99.90;;;;;;5134579;28;20600;-80
2023/02/18 08:22:11;;;;;;;1.70;1.60;;;10.10;99.90;;;;;;5115932;28;20173;-79
2023/02/18 08:24:36;;;;;;;1.50;1.40;;;10.10;99.90;;;;;;5134413;28;20186;-80
2023/02/18 08:27:02;;;;;;;1.30;1.20;;;10.10;99.90;;;;;;5135087;27;20166;-80
2023/02/18 08:29:28;;;;;;;1.47;1.20;;;10.40;99.90;;;;;;5132916;28;20178;-79
2023/02/18 08:31:56;;;;;;;2.27;1.40;;;10.40;99.90;;;;;;5132044;28;20179;-79
2023/02/18 08:34:21;;;;;;;1.43;1.27;;;10.50;99.90;;;;;;5133419;27;20171;-79
2023/02/18 08:36:47;;;;;;;1.93;1.27;;;10.50;99.90;;;;;;5133040;28;20199;-80
2023/02/18 08:39:13;;;;;;;1.10;1.00;;;10.70;99.90;;;;;;5132719;28;20177;-79
2023/02/18 08:41:38;;;;;;;1.33;0.93;;;10.60;99.90;;;;;;5134368;27;20177;-81
2023/02/18 08:44:04;;;;;;;1.83;1.20;;;10.60;99.90;;;;;;5133084;28;20212;-80
2023/02/18 08:46:30;;;;;;;1.43;1.30;;;10.60;99.90;;;;;;5135526;27;20202;-81
2023/02/18 08:48:56;;;;;;;2.00;1.40;;;10.60;99.90;;;;;;5134825;28;20179;-80
2023/02/18 08:51:22;;;;;;;1.03;0.93;;;10.60;99.90;;;;;;5133589;28;20175;-80
2023/02/18 08:53:48;;;;;;;3.47;2.67;;;10.70;99.90;;;;;;5133664;28;20186;-81
2023/02/18 08:56:16;;;;;;;3.87;3.10;;;10.70;99.90;;;;;;5133980;28;20202;-80
2023/02/18 08:58:42;;;;;;;2.87;1.33;;;10.70;99.90;;;;;;5132867;28;20606;-80
2023/02/18 09:01:10;;;;;;;1.50;1.40;;;10.80;99.90;;;;;;5133515;28;20581;-79
2023/02/18 09:03:35;;;;;;;1.00;0.90;;;10.80;99.90;;;;;;5133408;28;20224;-79
2023/02/18 09:06:02;;;;;;;1.50;0.90;;;11.20;99.90;;;;;;5133111;28;20195;-81
2023/02/18 09:08:28;;;;;;;1.30;1.20;;;11.50;99.90;;;;;;5132918;28;20198;-80
2023/02/18 09:10:57;;;;;;;1.67;0.90;;;11.60;99.90;;;;;;5134984;27;20175;-81
2023/02/18 09:13:24;;;;;;;1.37;1.00;;;11.50;99.90;;;;;;5134472;27;20227;-79
2023/02/18 09:16:17;;;;;;;3.27;0.80;;;11.50;99.90;;;;;;5134180;27;20215;-81
2023/02/18 09:18:43;;;;;;;1.40;0.77;;;11.80;99.90;;;;;;5136963;28;20214;-79
2023/02/18 09:21:12;;;;;;;2.23;1.10;;;12.00;99.90;;;;;;5133656;27;20175;-80
2023/02/18 09:23:39;;;;;;;1.50;0.77;;;12.10;99.90;;;;;;5133913;27;20184;-79
2023/02/18 09:26:06;;;;;;;2.20;0.70;;;11.80;99.90;;;;;;5132428;28;20201;-79
2023/02/18 09:28:33;;;;;;;1.07;0.80;;;11.70;99.90;;;;;;5119172;28;20197;-79
2023/02/18 09:31:09;;;;;;;1.63;1.30;;;11.50;99.90;;;;;;5117862;28;20183;-80
2023/02/18 09:33:36;;;;;;;3.57;2.17;;;11.50;99.90;;;;;;5119572;28;20164;-80
2023/02/18 09:36:02;;;;;;;1.90;1.33;;;11.80;99.90;;;;;;5117925;28;20252;-80
2023/02/18 09:38:28;;;;;;;4.07;2.30;;;11.80;99.90;;;;;;5118249;28;20172;-81
2023/02/18 09:40:56;;;;;;;4.37;2.67;;;11.60;99.90;;;;;;5118069;28;20178;-81
2023/02/18 09:43:41;;;;;;;0.97;0.87;;;11.90;99.90;;;;;;5119366;28;20191;-82
2023/02/18 09:46:23;;;;;;;2.40;1.40;;;12.10;99.90;;;;;;5118651;28;20537;-81
2023/02/18 09:48:51;;;;;;;2.10;1.10;;;12.10;99.90;;;;;;5119439;28;20266;-79
2023/02/18 09:51:18;;;;;;;1.37;1.27;;;12.20;99.90;;;;;;5119253;28;20646;-82
2023/02/18 09:53:45;;;;;;;3.10;1.33;;;12.20;99.90;;;;;;5119253;28;20278;-80
2023/02/18 09:56:21;;;;;;;3.00;1.20;;;12.40;99.90;;;;;;5118012;28;20205;-81
2023/02/18 09:58:48;;;;;;;1.97;1.50;;;12.00;99.90;;;;;;5117670;28;20174;-80
2023/02/18 10:01:28;;;;;;;1.30;1.00;;;11.90;99.90;;;;;;5119274;28;20672;-83
2023/02/18 10:03:57;;;;;;;1.73;1.10;;;12.00;99.90;;;;;;5119139;28;20176;-81
2023/02/18 10:06:30;;;;;;;2.37;0.80;;;12.60;99.90;;;;;;5118407;28;20200;-83
2023/02/18 10:08:58;;;;;;;1.10;0.90;;;12.80;99.90;;;;;;5119345;28;20176;-80
2023/02/18 10:11:38;;;;;;;1.80;0.70;;;12.70;99.90;;;;;;5117392;28;20266;-81
2023/02/18 10:14:14;;;;;;;1.13;0.87;;;12.50;99.90;;;;;;5118283;28;20168;-81
2023/02/18 10:16:41;;;;;;;1.83;1.00;;;12.50;99.90;;;;;;5118627;28;20572;-81
2023/02/18 10:19:22;;;;;;;2.50;0.97;;;12.40;99.90;;;;;;5119477;28;20176;-81
2023/02/18 10:21:50;;;;;;;1.13;0.93;;;12.30;99.90;;;;;;5117678;28;20226;-81
2023/02/18 10:24:31;;;;;;;1.10;0.93;;;12.40;99.90;;;;;;5119601;28;20173;-81
2023/02/18 10:26:57;;;;;;;11.17;5.83;;;12.50;99.90;;;;;;5118958;28;20172;-82
2023/02/18 10:29:24;;;;;;;1.70;1.17;;;12.50;99.90;;;;;;5120277;28;20201;-81
2023/02/18 10:31:56;;;;;;;1.20;1.10;;;12.60;99.90;;;;;;5119625;28;20666;-82
2023/02/18 10:34:41;;;;;;;4.47;1.73;;;12.60;99.90;;;;;;5120473;28;20181;-82
2023/02/18 10:37:39;;;;;;;3.23;1.50;;;12.70;99.90;;;;;;5117131;28;20237;-81
2023/02/18 10:40:12;;;;;;;1.00;0.90;;;13.20;99.90;;;;;;5115783;28;20186;-79
2023/02/18 10:43:16;;;;;;;2.30;0.97;;;13.30;99.90;;;;;;5116540;28;20172;-79
2023/02/18 10:46:13;;;;;;;3.70;1.63;;;13.30;99.90;;;;;;5117754;28;20522;-81
2023/02/18 10:49:00;;;;;;;1.00;0.90;;;13.70;99.90;;;;;;5116865;28;20183;-81
2023/02/18 10:51:29;;;;;;;2.60;0.90;;;13.70;99.90;;;;;;5118133;28;20613;-81
2023/02/18 10:53:55;;;;;;;2.60;1.30;;;13.70;99.90;;;;;;5118469;28;20178;-81
2023/02/18 10:56:42;;;;;;;1.87;1.37;;;13.70;99.90;;;;;;5117831;28;20565;-82
2023/02/18 10:59:21;;;;;;;2.60;1.23;;;13.60;99.90;;;;;;5117243;28;20188;-81
2023/02/18 11:01:58;;;;;;;2.60;1.30;;;14.10;99.90;;;;;;5116547;28;20316;-81
2023/02/18 11:04:38;;;;;;;1.03;0.90;;;14.60;99.90;;;;;;5117954;28;20171;-82
2023/02/18 11:07:11;;;;;;;2.43;1.00;;;14.60;99.90;;;;;;5116311;28;20182;-82
2023/02/18 11:09:41;;;;;;;1.77;1.00;;;14.60;99.90;;;;;;5117858;28;20543;-80
2023/02/18 11:12:26;;;;;;;1.30;1.20;;;14.90;99.90;;;;;;5118188;28;20237;-82
2023/02/18 11:15:06;;;;;;;1.50;1.40;;;14.30;99.90;;;;;;5117422;28;20191;-81
2023/02/18 11:17:36;;;;;;;3.13;1.60;;;13.80;99.90;;;;;;5116106;28;20684;-80
2023/02/18 11:20:21;;;;;;;1.70;1.60;;;13.90;99.90;;;;;;5116711;28;20171;-81
2023/02/18 11:22:48;;;;;;;2.03;1.70;;;14.10;99.90;;;;;;5117854;28;20171;-81
2023/02/18 11:25:23;;;;;;;1.53;1.43;;;14.00;99.90;;;;;;5116090;28;20198;-81
2023/02/18 11:27:59;;;;;;;2.43;2.10;;;14.10;99.90;;;;;;5116527;28;20631;-82
2023/02/18 11:30:55;;;;;;;2.40;1.60;;;13.90;99.90;;;;;;5118187;28;20166;-82
2023/02/18 11:33:25;;;;;;;2.57;1.70;;;13.80;99.90;;;;;;5116457;28;20198;-82
2023/02/18 11:35:56;;;;;;;2.07;1.30;;;13.90;99.90;;;;;;5117822;28;20270;-81
2023/02/18 11:38:33;;;;;;;0.90;0.90;;;14.20;99.90;;;;;;5117667;28;20197;-80
2023/02/18 11:41:07;;;;;;;1.60;1.43;;;14.30;99.90;;;;;;5116617;28;20190;-80
2023/02/18 11:43:34;;;;;;;1.40;1.20;;;14.30;99.90;;;;;;5117593;28;20171;-80
2023/02/18 11:46:14;;;;;;;2.60;1.37;;;14.20;99.90;;;;;;5117400;28;20192;-82
2023/02/18 11:48:40;;;;;;;2.57;1.20;;;14.20;99.90;;;;;;5116175;28;20175;-82
2023/02/18 11:51:24;;;;;;;2.13;1.33;;;14.00;99.90;;;;;;5117413;28;20235;-79
2023/02/18 11:54:28;;;;;;;1.30;1.10;;;13.80;99.90;;;;;;5117169;28;20174;-81
2023/02/18 11:57:04;;;;;;;1.50;1.33;;;13.50;99.90;;;;;;5117667;28;20201;-80
2023/02/18 11:59:34;;;;;;;1.60;1.23;;;13.30;99.90;;;;;;5118507;28;20226;-81
2023/02/18 12:02:29;;;;;;;4.10;1.30;;;13.40;99.90;;;;;;5117340;28;20231;-81
2023/02/18 12:04:57;;;;;;;1.97;1.00;;;13.50;99.90;;;;;;5117444;28;20200;-79
2023/02/18 12:07:30;;;;;;;1.50;1.20;;;13.50;99.90;;;;;;5117297;28;20167;-82
2023/02/18 12:10:09;;;;;;;1.27;0.87;;;13.20;99.90;;;;;;5116495;28;20182;-80
2023/02/18 12:12:51;;;;;;;1.13;0.90;;;12.90;99.90;;;;;;5115946;28;20174;-80
2023/02/18 12:15:24;;;;;;;1.37;1.10;;;12.90;99.90;;;;;;5117678;28;20201;-83
2023/02/18 12:18:02;;;;;;;1.50;0.90;;;13.10;99.90;;;;;;5116547;28;20203;-80
2023/02/18 12:20:40;;;;;;;1.17;0.90;;;13.10;99.90;;;;;;5117549;28;20177;-80
2023/02/18 12:23:27;;;;;;;1.37;0.90;;;13.60;99.90;;;;;;5115944;28;20180;-81
2023/02/18 12:26:14;;;;;;;1.97;1.47;;;14.40;99.90;;;;;;5116842;28;20199;-82
2023/02/18 12:29:07;;;;;;;1.43;1.07;;;15.10;99.90;;;;;;5123580;28;20599;-81
2023/02/18 12:31:39;;;;;;;2.47;1.57;;;15.40;99.90;;;;;;5117098;28;20211;-81
2023/02/18 12:34:33;;;;;;;1.30;1.20;;;15.00;99.90;;;;;;5115839;28;20664;-82
2023/02/18 12:37:01;;;;;;;1.47;1.10;;;14.90;99.90;;;;;;5116090;28;20250;-82
2023/02/18 12:39:46;;;;;;;1.40;1.27;;;15.00;99.90;;;;;;5115408;28;20174;-82
2023/02/18 12:42:58;;;;;;;1.27;1.10;;;15.20;99.90;;;;;;5116702;28;20690;-82
2023/02/18 12:45:43;;;;;;;5.17;2.03;;;15.40;99.90;;;;;;5088169;28;20208;-81
2023/02/18 12:48:38;;;;;;;12.83;6.33;;;16.00;99.90;;;;;;5116882;28;20261;-82
2023/02/18 12:51:22;;;;;;;3.60;1.50;;;15.30;99.90;;;;;;5117137;28;20183;-82
2023/02/18 12:54:00;;;;;;;1.30;1.07;;;14.90;99.90;;;;;;5116895;28;20567;-80
2023/02/18 12:57:03;;;;;;;3.17;1.30;;;14.50;99.90;;;;;;5115705;28;20306;-83
2023/02/18 12:59:59;;;;;;;1.83;1.27;;;14.30;99.90;;;;;;5121372;28;20179;-82
2023/02/18 13:02:49;;;;;;;2.40;1.37;;;14.20;99.90;;;;;;5119887;28;20188;-82
2023/02/18 13:05:36;;;;;;;1.33;1.10;;;14.20;99.90;;;;;;5121828;28;20208;-80
2023/02/18 13:08:20;;;;;;;1.77;1.30;;;14.10;99.90;;;;;;5122691;28;20641;-80
2023/02/18 13:11:13;;;;;;;1.40;1.10;;;13.80;99.90;;;;;;5118919;28;20182;-82
2023/02/18 13:13:57;;;;;;;3.73;0.90;;;13.60;99.90;;;;;;5118616;28;20239;-80
2023/02/18 13:16:25;;;;;;;4.20;1.00;;;13.70;99.90;;;;;;5118344;28;20216;-80
2023/02/18 13:19:22;;;;;;;3.73;3.23;;;13.90;99.90;;;;;;5118185;28;20187;-81
2023/02/18 13:21:51;;;;;;;1.50;1.40;;;14.10;99.90;;;;;;5100106;28;20263;-82
2023/02/18 13:24:26;;;;;;;1.30;0.97;;;14.10;99.90;;;;;;5119949;27;20173;-82
2023/02/18 13:27:00;;;;;;;2.10;1.47;;;14.60;99.90;;;;;;5119125;28;20189;-82
2023/02/18 13:29:38;;;;;;;2.83;1.60;;;15.20;99.90;;;;;;5120362;28;20176;-81
2023/02/18 13:32:43;;;;;;;7.20;4.30;;;15.30;99.90;;;;;;5119811;28;20179;-82
2023/02/18 13:35:24;;;;;;;5.70;2.40;;;15.40;99.90;;;;;;5110476;28;20565;-80
2023/02/18 13:38:11;;;;;;;4.50;2.50;;;14.80;99.90;;;;;;5119938;28;20169;-82
2023/02/18 13:40:38;;;;;;;2.70;1.57;;;15.20;99.90;;;;;;5119978;27;20165;-81
2023/02/18 13:43:30;;;;;;;2.47;1.50;;;14.80;99.90;;;;;;5119068;28;20696;-82
2023/02/18 13:46:08;;;;;;;1.03;0.93;;;14.30;99.90;;;;;;5130645;28;20221;-81
2023/02/18 13:48:48;;;;;;;1.33;1.23;;;14.10;99.90;;;;;;5133916;28;20181;-82
2023/02/18 13:51:17;;;;;;;1.60;1.13;;;14.50;99.90;;;;;;5123844;28;20173;-81
2023/02/18 13:53:49;;;;;;;3.63;1.43;;;14.60;99.90;;;;;;5117982;28;20722;-81
2023/02/18 13:56:30;;;;;;;3.03;1.90;;;14.60;99.90;;;;;;5117967;28;20567;-81
2023/02/18 13:59:19;;;;;;;2.37;1.90;;;15.40;99.90;;;;;;5118991;28;20164;-81
2023/02/18 14:01:50;;;;;;;2.30;2.10;;;15.80;99.90;;;;;;5117119;28;20177;-79
2023/02/18 14:04:41;;;;;;;5.63;3.00;;;16.10;99.90;;;;;;5118029;28;20245;-82
2023/02/18 14:07:27;;;;;;;8.10;4.97;;;15.90;99.90;;;;;;5117346;28;20176;-81
2023/02/18 14:09:56;;;;;;;2.20;1.33;;;16.00;99.90;;;;;;5118451;28;20174;-79
2023/02/18 14:12:40;;;;;;;4.37;3.90;;;15.40;99.90;;;;;;5117945;28;20249;-80
2023/02/18 14:15:17;;;;;;;7.43;4.63;;;15.30;99.90;;;;;;5117670;28;20198;-79
2023/02/18 14:17:47;;;;;;;5.00;3.50;;;15.30;99.90;;;;;;5117974;28;20199;-80
2023/02/18 14:20:27;;;;;;;2.83;2.17;;;15.20;99.90;;;;;;5116905;28;20169;-79
2023/02/18 14:22:52;;;;;;;2.90;2.37;;;14.60;99.90;;;;;;5116411;28;20540;-79
2023/02/18 14:25:38;;;;;;;4.17;3.13;;;14.00;99.90;;;;;;5117840;27;20644;-81
2023/02/18 14:28:33;;;;;;;2.33;2.00;;;13.50;99.90;;;;;;5116904;28;20173;-81
2023/02/18 14:31:11;;;;;;;2.50;1.53;;;13.20;99.90;;;;;;5116886;28;20172;-79
2023/02/18 14:33:44;;;;;;;2.23;1.87;;;13.00;99.90;;;;;;5116267;28;20187;-80
2023/02/18 14:36:22;;;;;;;2.77;1.90;;;12.90;99.90;;;;;;5117607;28;20256;-81
2023/02/18 14:39:13;;;;;;;3.47;2.30;;;13.00;99.90;;;;;;5118414;28;20172;-79
2023/02/18 14:42:19;;;;;;;5.90;3.83;;;12.80;99.90;;;;;;5116766;28;20180;-83
2023/02/18 14:45:03;;;;;;;4.37;2.37;;;12.70;99.90;;;;;;5116219;28;20278;-80
2023/02/18 14:47:31;;;;;;;4.87;2.43;;;12.70;99.90;;;;;;5117611;28;20632;-81
2023/02/18 14:50:02;;;;;;;6.20;3.03;;;12.60;99.90;;;;;;5117214;28;20676;-81
2023/02/18 14:52:32;;;;;;;3.97;2.43;;;12.70;99.90;;;;;;5116509;28;20612;-80
2023/02/18 14:55:01;;;;;;;3.13;2.17;;;12.60;99.90;;;;;;5117470;28;20216;-81
2023/02/18 14:57:43;;;;;;;3.27;2.07;;;12.70;99.90;;;;;;5116828;28;20328;-81
2023/02/18 15:00:39;;;;;;;3.60;1.37;;;12.80;99.90;;;;;;5118326;28;20175;-80
2023/02/18 15:03:19;;;;;;;1.60;1.30;;;12.70;99.90;;;;;;5103911;28;20180;-80
2023/02/18 15:05:45;;;;;;;2.13;1.27;;;12.60;99.90;;;;;;5118504;28;20187;-80
2023/02/18 15:08:22;;;;;;;3.20;2.53;;;12.70;99.90;;;;;;5117493;27;20530;-80
2023/02/18 15:10:59;;;;;;;1.77;1.40;;;12.60;99.90;;;;;;5118226;28;20278;-80
2023/02/18 15:13:34;;;;;;;2.73;1.97;;;12.60;99.90;;;;;;5116849;28;20182;-80
2023/02/18 15:16:07;;;;;;;4.67;3.20;;;12.40;99.90;;;;;;5117227;28;20692;-80
2023/02/18 15:18:36;;;;;;;4.33;2.30;;;12.30;99.90;;;;;;5117872;28;20262;-79
2023/02/18 15:21:04;;;;;;;9.07;3.63;;;12.30;99.90;;;;;;5117967;28;20167;-80
2023/02/18 15:23:33;;;;;;;1.50;1.30;;;12.20;99.90;;;;;;5118659;28;20183;-81
2023/02/18 15:25:59;;;;;;;2.87;2.47;;;12.10;99.90;;;;;;5116656;28;20191;-79
2023/02/18 15:28:30;;;;;;;2.90;2.07;;;12.10;99.90;;;;;;5119038;28;20175;-81
2023/02/18 15:30:58;;;;;;;2.60;2.10;;;12.10;99.90;;;;;;5116918;28;20186;-80
2023/02/18 15:33:24;;;;;;;2.93;2.43;;;12.00;99.90;;;;;;5117374;28;20180;-80
2023/02/18 15:35:50;;;;;;;4.03;1.93;;;12.10;99.90;;;;;;5120178;28;20195;-80
2023/02/18 15:38:19;;;;;;;2.57;1.53;;;12.00;99.90;;;;;;5122121;28;20189;-80
2023/02/18 15:40:53;;;;;;;2.63;1.60;;;11.90;99.90;;;;;;5122491;28;20652;-81
2023/02/18 15:43:22;;;;;;;5.97;2.20;;;11.80;99.90;;;;;;5120776;28;20168;-81
2023/02/18 15:45:51;;;;;;;2.70;1.97;;;11.80;99.90;;;;;;5116600;28;20206;-80
2023/02/18 15:48:44;;;;;;;2.20;2.00;;;11.80;99.90;;;;;;5115295;28;20714;-80
2023/02/18 15:51:13;;;;;;;2.40;1.80;;;11.70;99.90;;;;;;5116857;28;20637;-81
2023/02/18 15:53:41;;;;;;;1.63;1.30;;;11.70;99.90;;;;;;5116700;28;20167;-81
2023/02/18 15:56:10;;;;;;;1.73;1.23;;;11.60;99.90;;;;;;5117009;28;20197;-81
2023/02/18 15:58:35;;;;;;;5.47;2.40;;;11.50;99.90;;;;;;5117557;28;20216;-81
2023/02/18 16:21:25;;;;;;;5.87;3.03;;;11.00;99.90;;;;;;5151102;27;20362;-78
